createdAt,value
2018-01-17T00:00:37.426Z,18.07
2018-01-17T00:03:04.146Z,19.20
2018-01-17T00:05:30.888Z,20.13
2018-01-17T00:07:57.607Z,18.97
2018-01-17T00:10:24.346Z,20.60
2018-01-17T00:12:51.084Z,19.13
2018-01-17T00:15:17.820Z,16.57
2018-01-17T00:17:44.533Z,16.73
2018-01-17T00:20:11.305Z,17.17
2018-01-17T00:22:41.993Z,20.73
2018-01-17T00:25:08.721Z,17.60
2018-01-17T00:27:35.429Z,16.50
2018-01-17T00:30:02.137Z,13.40
2018-01-17T00:32:28.844Z,15.30
2018-01-17T00:34:55.572Z,16.97
2018-01-17T00:37:22.299Z,16.73
2018-01-17T00:39:49.048Z,17.40
2018-01-17T00:42:15.771Z,17.63
2018-01-17T00:44:42.504Z,15.63
2018-01-17T00:47:09.220Z,16.97
2018-01-17T00:49:35.934Z,16.77
2018-01-17T00:52:02.655Z,14.00
2018-01-17T00:54:29.392Z,15.70
2018-01-17T00:56:56.108Z,19.30
2018-01-17T00:59:22.834Z,15.27
2018-01-17T01:01:49.544Z,16.37
2018-01-17T01:04:16.270Z,13.50
2018-01-17T01:06:43.004Z,12.97
2018-01-17T01:09:09.710Z,16.07
2018-01-17T01:11:36.429Z,13.07
2018-01-17T01:14:03.158Z,15.90
2018-01-17T01:16:29.868Z,13.93
2018-01-17T01:18:56.568Z,14.27
2018-01-17T01:21:23.301Z,21.73
2018-01-17T01:23:50.039Z,12.43
2018-01-17T01:26:16.811Z,12.33
2018-01-17T01:28:43.520Z,10.63
2018-01-17T01:31:10.242Z,13.30
2018-01-17T01:33:37.007Z,12.00
2018-01-17T01:36:03.729Z,11.00
2018-01-17T01:38:30.424Z,12.30
2018-01-17T01:40:57.137Z,9.53
2018-01-17T01:43:23.861Z,9.30
2018-01-17T01:45:50.597Z,10.93
2018-01-17T01:48:17.314Z,8.60
2018-01-17T01:50:44.042Z,8.20
2018-01-17T01:53:10.754Z,6.97
2018-01-17T01:55:37.469Z,9.93
2018-01-17T01:58:04.218Z,10.13
2018-01-17T02:00:30.926Z,11.10
2018-01-17T02:02:57.629Z,8.23
2018-01-17T02:05:24.363Z,10.70
2018-01-17T02:07:51.086Z,8.80
2018-01-17T02:10:17.793Z,9.80
2018-01-17T02:12:44.524Z,8.37
2018-01-17T02:15:11.224Z,8.63
2018-01-17T02:17:37.935Z,6.53
2018-01-17T02:20:04.685Z,8.30
2018-01-17T02:22:31.385Z,7.93
2018-01-17T02:24:58.088Z,8.67
2018-01-17T02:27:24.832Z,8.73
2018-01-17T02:29:51.537Z,7.77
2018-01-17T02:32:18.245Z,7.40
2018-01-17T02:34:44.966Z,6.27
2018-01-17T02:37:11.687Z,9.37
2018-01-17T02:39:44.407Z,8.50
2018-01-17T02:42:11.142Z,3.50
2018-01-17T02:44:37.868Z,5.10
2018-01-17T02:47:04.570Z,4.83
2018-01-17T02:49:31.295Z,5.90
2018-01-17T02:51:58.015Z,5.87
2018-01-17T02:54:24.732Z,4.60
2018-01-17T02:56:51.529Z,4.93
2018-01-17T02:59:18.240Z,5.73
2018-01-17T03:01:44.941Z,6.60
2018-01-17T03:04:11.673Z,7.23
2018-01-17T03:06:38.395Z,7.63
2018-01-17T03:09:05.100Z,9.20
2018-01-17T03:11:31.823Z,8.57
2018-01-17T03:13:58.528Z,8.63
2018-01-17T03:16:25.232Z,8.40
2018-01-17T03:18:51.981Z,7.53
2018-01-17T03:21:18.696Z,7.40
2018-01-17T03:23:45.398Z,9.90
2018-01-17T03:26:12.124Z,9.03
2018-01-17T03:28:38.829Z,6.53
2018-01-17T03:31:05.550Z,5.60
2018-01-17T03:33:32.306Z,6.60
2018-01-17T03:35:59.010Z,6.47
2018-01-17T03:38:25.716Z,7.30
2018-01-17T03:40:52.434Z,10.67
2018-01-17T03:43:19.141Z,10.97
2018-01-17T03:45:45.872Z,9.70
2018-01-17T03:48:12.606Z,14.03
2018-01-17T03:50:39.344Z,9.00
2018-01-17T03:53:06.085Z,8.77
2018-01-17T03:55:32.823Z,7.50
2018-01-17T03:57:59.526Z,6.93
2018-01-17T04:00:26.231Z,8.13
2018-01-17T04:02:52.954Z,9.13
2018-01-17T04:05:19.649Z,8.90
2018-01-17T04:07:46.379Z,7.10
2018-01-17T04:10:13.113Z,7.40
2018-01-17T04:12:39.825Z,7.27
2018-01-17T04:15:06.547Z,8.13
2018-01-17T04:17:33.282Z,17.43
2018-01-17T04:20:00.046Z,15.27
2018-01-17T04:22:26.763Z,8.00
2018-01-17T04:24:53.487Z,9.50
2018-01-17T04:27:20.215Z,6.83
2018-01-17T04:29:46.924Z,10.10
2018-01-17T04:32:13.678Z,11.00
2018-01-17T04:34:40.397Z,10.63
2018-01-17T04:37:07.100Z,12.27
2018-01-17T04:39:33.874Z,14.10
2018-01-17T04:42:00.576Z,12.43
2018-01-17T04:44:27.289Z,9.23
2018-01-17T04:46:54.012Z,7.10
2018-01-17T04:49:20.770Z,4.60
2018-01-17T04:51:47.485Z,3.33
2018-01-17T04:54:14.226Z,3.70
2018-01-17T04:56:40.930Z,6.10
2018-01-17T04:59:07.634Z,4.10
2018-01-17T05:01:34.358Z,5.37
2018-01-17T05:04:01.059Z,7.10
2018-01-17T05:06:27.754Z,6.53
2018-01-17T05:08:54.487Z,6.80
2018-01-17T05:11:21.188Z,7.43
2018-01-17T05:13:47.903Z,7.33
2018-01-17T05:16:14.657Z,9.73
2018-01-17T05:18:41.370Z,11.17
2018-01-17T05:21:08.086Z,7.37
2018-01-17T05:23:34.840Z,16.47
2018-01-17T05:26:01.563Z,12.60
2018-01-17T05:28:28.279Z,11.07
2018-01-17T05:30:55.009Z,9.37
2018-01-17T05:33:21.716Z,9.07
2018-01-17T05:35:48.448Z,10.27
2018-01-17T05:38:15.185Z,9.53
2018-01-17T05:40:41.930Z,17.87
2018-01-17T05:43:08.637Z,12.40
2018-01-17T05:45:35.364Z,9.20
2018-01-17T05:48:02.073Z,16.73
2018-01-17T05:50:28.774Z,11.00
2018-01-17T05:52:55.484Z,9.47
2018-01-17T05:55:22.218Z,11.57
2018-01-17T05:57:49.007Z,8.53
2018-01-17T06:00:15.741Z,8.40
2018-01-17T06:02:42.457Z,10.90
2018-01-17T06:05:09.184Z,10.83
2018-01-17T06:07:35.899Z,12.00
2018-01-17T06:10:02.608Z,12.50
2018-01-17T06:12:29.334Z,15.60
2018-01-17T06:14:56.078Z,12.70
2018-01-17T06:17:22.838Z,14.73
2018-01-17T06:19:49.586Z,11.10
2018-01-17T06:22:16.321Z,11.70
2018-01-17T06:24:43.056Z,15.97
2018-01-17T06:27:09.814Z,17.20
2018-01-17T06:29:36.541Z,16.03
2018-01-17T06:32:03.253Z,12.07
2018-01-17T06:34:29.958Z,9.77
2018-01-17T06:36:56.680Z,13.77
2018-01-17T06:39:23.411Z,13.20
2018-01-17T06:41:50.118Z,12.93
2018-01-17T06:44:16.860Z,13.43
2018-01-17T06:46:43.586Z,11.47
2018-01-17T06:49:10.289Z,12.83
2018-01-17T06:51:37.022Z,12.50
2018-01-17T06:54:03.757Z,11.10
2018-01-17T06:56:30.480Z,13.30
2018-01-17T06:58:57.244Z,24.80
2018-01-17T07:01:23.978Z,18.10
2018-01-17T07:03:50.685Z,17.10
2018-01-17T07:06:17.430Z,14.13
2018-01-17T07:08:44.145Z,13.40
2018-01-17T07:11:10.891Z,14.10
2018-01-17T07:13:37.641Z,13.50
2018-01-17T07:16:04.364Z,11.43
2018-01-17T07:18:31.099Z,12.30
2018-01-17T07:20:57.861Z,11.33
2018-01-17T07:23:24.575Z,8.60
2018-01-17T07:25:51.284Z,10.73
2018-01-17T07:28:18.088Z,14.33
2018-01-17T07:30:44.817Z,9.63
2018-01-17T07:33:11.547Z,7.10
2018-01-17T07:35:38.288Z,10.37
2018-01-17T07:38:04.999Z,8.37
2018-01-17T07:40:31.714Z,8.07
2018-01-17T07:42:58.422Z,10.87
2018-01-17T07:45:25.126Z,8.43
2018-01-17T07:47:51.828Z,6.60
2018-01-17T07:50:18.574Z,5.97
2018-01-17T07:52:45.278Z,7.10
2018-01-17T07:55:12.020Z,8.27
2018-01-17T07:57:38.749Z,7.30
2018-01-17T08:00:05.451Z,6.60
2018-01-17T08:02:32.148Z,5.80
2018-01-17T08:04:58.908Z,7.10
2018-01-17T08:07:25.615Z,8.93
2018-01-17T08:09:52.322Z,7.23
2018-01-17T08:12:19.046Z,10.10
2018-01-17T08:14:45.787Z,8.17
2018-01-17T08:17:12.488Z,8.83
2018-01-17T08:19:39.218Z,6.77
2018-01-17T08:22:05.924Z,8.53
2018-01-17T08:24:32.653Z,9.70
2018-01-17T08:26:59.381Z,7.93
2018-01-17T08:29:26.084Z,10.30
2018-01-17T08:31:52.797Z,7.00
2018-01-17T08:34:19.529Z,7.50
2018-01-17T08:36:46.237Z,5.97
2018-01-17T08:39:12.938Z,5.00
2018-01-17T08:41:39.665Z,5.50
2018-01-17T08:44:06.386Z,7.10
2018-01-17T08:46:33.095Z,7.00
2018-01-17T08:48:59.824Z,8.57
2018-01-17T08:51:26.525Z,8.90
2018-01-17T08:53:53.257Z,8.83
2018-01-17T08:56:19.976Z,8.60
2018-01-17T08:58:46.681Z,11.13
2018-01-17T09:01:13.398Z,11.20
2018-01-17T09:03:40.144Z,13.23
2018-01-17T09:06:06.850Z,13.70
2018-01-17T09:08:33.560Z,13.77
2018-01-17T09:11:00.307Z,15.63
2018-01-17T09:13:27.017Z,12.77
2018-01-17T09:15:53.730Z,12.57
2018-01-17T09:18:20.480Z,12.63
2018-01-17T09:20:47.195Z,14.00
2018-01-17T09:23:13.974Z,19.30
2018-01-17T09:25:40.688Z,19.27
2018-01-17T09:28:07.411Z,17.73
2018-01-17T09:30:34.182Z,20.97
2018-01-17T09:33:00.944Z,22.50
2018-01-17T09:35:27.693Z,17.60
2018-01-17T09:37:54.422Z,20.00
2018-01-17T09:40:21.162Z,18.53
2018-01-17T09:42:47.878Z,19.47
2018-01-17T09:45:14.600Z,21.57
2018-01-17T09:47:41.333Z,20.47
2018-01-17T09:50:08.089Z,18.90
2018-01-17T09:52:34.814Z,22.37
2018-01-17T09:55:01.541Z,20.03
2018-01-17T09:57:28.269Z,24.00
2018-01-17T09:59:55.006Z,19.90
2018-01-17T10:02:21.747Z,25.40
2018-01-17T10:04:48.463Z,24.30
2018-01-17T10:07:15.170Z,23.70
2018-01-17T10:09:41.929Z,20.43
2018-01-17T10:12:08.644Z,24.13
2018-01-17T10:14:35.372Z,20.27
2018-01-17T10:17:02.161Z,25.60
2018-01-17T10:19:28.897Z,22.87
2018-01-17T10:21:55.613Z,23.87
2018-01-17T10:24:22.325Z,22.63
2018-01-17T10:26:49.042Z,22.60
2018-01-17T10:29:15.774Z,25.10
2018-01-17T10:31:42.506Z,27.67
2018-01-17T10:34:09.212Z,22.50
2018-01-17T10:36:35.954Z,24.53
2018-01-17T10:39:02.696Z,22.87
2018-01-17T10:41:29.410Z,26.97
2018-01-17T10:43:56.140Z,21.83
2018-01-17T10:46:22.901Z,23.10
2018-01-17T10:48:49.619Z,21.80
2018-01-17T10:51:16.461Z,22.50
2018-01-17T10:53:43.206Z,21.97
2018-01-17T10:56:10.015Z,25.27
2018-01-17T10:58:36.725Z,23.70
2018-01-17T11:01:03.527Z,21.30
2018-01-17T11:03:30.238Z,26.60
2018-01-17T11:05:56.949Z,24.50
2018-01-17T11:08:23.680Z,22.50
2018-01-17T11:10:50.407Z,23.73
2018-01-17T11:13:17.126Z,23.80
2018-01-17T11:15:43.867Z,20.57
2018-01-17T11:18:10.582Z,25.13
2018-01-17T11:20:37.290Z,28.70
2018-01-17T11:23:04.039Z,16.77
2018-01-17T11:25:30.826Z,18.03
2018-01-17T11:27:57.537Z,17.50
2018-01-17T11:30:24.259Z,17.17
2018-01-17T11:32:50.967Z,19.10
2018-01-17T11:35:17.690Z,16.27
2018-01-17T11:37:44.434Z,11.47
2018-01-17T11:40:11.154Z,14.07
2018-01-17T11:42:37.874Z,18.30
2018-01-17T11:45:04.600Z,13.70
2018-01-17T11:47:31.326Z,14.67
2018-01-17T11:49:58.051Z,13.43
2018-01-17T11:52:24.833Z,10.33
2018-01-17T11:54:51.543Z,3.97
2018-01-17T11:57:18.252Z,3.77
2018-01-17T11:59:44.968Z,2.30
2018-01-17T12:02:11.698Z,1.70
2018-01-17T12:04:38.410Z,1.80
2018-01-17T12:07:05.130Z,1.20
2018-01-17T12:09:31.897Z,1.80
2018-01-17T12:11:58.603Z,1.10
2018-01-17T12:14:25.351Z,2.80
2018-01-17T12:16:52.052Z,1.03
2018-01-17T12:19:18.753Z,1.10
2018-01-17T12:21:45.505Z,1.00
2018-01-17T12:24:12.265Z,0.90
2018-01-17T12:26:38.978Z,1.10
2018-01-17T12:29:05.696Z,0.80
2018-01-17T12:31:32.393Z,0.90
2018-01-17T12:33:59.098Z,1.70
2018-01-17T12:36:25.829Z,0.80
2018-01-17T12:38:52.551Z,1.40
2018-01-17T12:41:19.322Z,1.10
2018-01-17T12:43:46.051Z,1.10
2018-01-17T12:46:12.772Z,1.20
2018-01-17T12:48:39.470Z,0.90
2018-01-17T12:51:06.181Z,1.17
2018-01-17T12:53:32.901Z,1.73
2018-01-17T12:55:59.610Z,1.83
2018-01-17T12:58:26.314Z,5.23
2018-01-17T13:00:53.089Z,1.80
2018-01-17T13:03:19.832Z,1.17
2018-01-17T13:05:46.557Z,1.17
2018-01-17T13:08:13.271Z,1.20
2018-01-17T13:10:39.988Z,1.27
2018-01-17T13:13:06.733Z,1.33
2018-01-17T13:15:33.497Z,1.30
2018-01-17T13:18:00.178Z,2.20
2018-01-17T13:20:26.909Z,1.10
2018-01-17T13:22:53.609Z,0.90
2018-01-17T13:25:20.309Z,0.80
2018-01-17T13:27:47.038Z,1.20
2018-01-17T13:30:13.765Z,1.10
2018-01-17T13:32:40.503Z,3.30
2018-01-17T13:35:07.216Z,1.43
2018-01-17T13:37:33.922Z,1.17
2018-01-17T13:40:00.632Z,1.17
2018-01-17T13:42:27.349Z,1.20
2018-01-17T13:44:54.058Z,1.17
2018-01-17T13:47:20.770Z,1.00
2018-01-17T13:49:47.520Z,1.20
2018-01-17T13:52:14.213Z,1.10
2018-01-17T13:54:40.929Z,1.20
2018-01-17T13:57:07.692Z,1.50
2018-01-17T13:59:34.398Z,1.03
2018-01-17T14:02:01.117Z,1.47
2018-01-17T14:04:27.909Z,1.30
2018-01-17T14:06:54.610Z,1.80
2018-01-17T14:09:21.340Z,1.83
2018-01-17T14:11:48.068Z,1.00
2018-01-17T14:14:14.778Z,1.00
2018-01-17T14:16:41.486Z,1.30
2018-01-17T14:19:08.222Z,1.10
2018-01-17T14:21:34.937Z,1.13
2018-01-17T14:24:01.651Z,4.30
2018-01-17T14:26:28.431Z,2.07
2018-01-17T14:28:55.143Z,1.40
2018-01-17T14:31:21.837Z,1.00
2018-01-17T14:33:48.581Z,1.00
2018-01-17T14:36:16.244Z,2.17
2018-01-17T14:38:42.967Z,2.90
2018-01-17T14:41:09.689Z,2.00
2018-01-17T14:43:36.406Z,0.80
2018-01-17T14:46:03.105Z,0.80
2018-01-17T14:48:29.838Z,1.10
2018-01-17T14:50:56.561Z,1.17
2018-01-17T14:53:23.445Z,1.03
2018-01-17T14:55:50.181Z,1.00
2018-01-17T14:58:16.910Z,1.20
2018-01-17T15:00:43.623Z,1.00
2018-01-17T15:03:10.361Z,2.07
2018-01-17T15:05:37.085Z,1.30
2018-01-17T15:08:03.798Z,0.90
2018-01-17T15:10:30.511Z,1.03
2018-01-17T15:12:57.217Z,0.90
2018-01-17T15:15:23.969Z,1.27
2018-01-17T15:17:50.762Z,4.10
2018-01-17T15:20:17.493Z,0.80
2018-01-17T15:22:44.225Z,2.03
2018-01-17T15:25:10.981Z,2.10
2018-01-17T15:27:37.721Z,1.00
2018-01-17T15:30:04.433Z,2.40
2018-01-17T15:32:31.204Z,3.70
2018-01-17T15:34:57.940Z,2.07
2018-01-17T15:37:25.625Z,2.20
2018-01-17T15:39:52.376Z,1.27
2018-01-17T15:42:19.090Z,2.30
2018-01-17T15:44:45.804Z,1.57
2018-01-17T15:47:12.505Z,1.87
2018-01-17T15:49:39.221Z,2.03
2018-01-17T15:52:05.920Z,1.57
2018-01-17T15:54:32.669Z,1.00
2018-01-17T15:56:59.410Z,2.03
2018-01-17T15:59:26.130Z,3.20
2018-01-17T16:01:52.853Z,2.40
2018-01-17T16:04:19.587Z,1.83
2018-01-17T16:06:46.306Z,1.00
2018-01-17T16:09:13.025Z,1.47
2018-01-17T16:11:39.737Z,1.43
2018-01-17T16:14:06.473Z,1.37
2018-01-17T16:16:33.201Z,1.10
2018-01-17T16:18:59.901Z,1.23
2018-01-17T16:21:26.606Z,1.07
2018-01-17T16:23:53.351Z,0.93
2018-01-17T16:26:20.079Z,1.20
2018-01-17T16:28:46.796Z,2.73
2018-01-17T16:31:13.513Z,1.53
2018-01-17T16:33:40.235Z,1.47
2018-01-17T16:36:06.978Z,1.57
2018-01-17T16:38:33.690Z,0.80
2018-01-17T16:41:00.409Z,2.73
2018-01-17T16:43:27.124Z,1.50
2018-01-17T16:45:53.900Z,2.80
2018-01-17T16:48:20.620Z,1.47
2018-01-17T16:50:47.342Z,2.23
2018-01-17T16:53:14.056Z,1.03
2018-01-17T16:55:40.753Z,2.00
2018-01-17T16:58:07.574Z,1.20
2018-01-17T17:00:34.318Z,0.93
2018-01-17T17:03:01.052Z,2.03
2018-01-17T17:05:27.762Z,1.70
2018-01-17T17:07:54.493Z,1.13
2018-01-17T17:10:21.215Z,1.77
2018-01-17T17:12:47.928Z,1.93
2018-01-17T17:15:14.716Z,4.13
2018-01-17T17:17:41.449Z,1.00
2018-01-17T17:20:08.158Z,0.87
2018-01-17T17:22:34.878Z,2.47
2018-01-17T17:25:01.590Z,2.70
2018-01-17T17:27:28.327Z,3.83
2018-01-17T17:29:55.058Z,1.37
2018-01-17T17:32:21.822Z,3.23
2018-01-17T17:34:48.542Z,1.33
2018-01-17T17:37:15.284Z,1.33
2018-01-17T17:39:42.000Z,1.57
2018-01-17T17:42:08.731Z,5.37
2018-01-17T17:44:35.472Z,1.53
2018-01-17T17:47:02.216Z,1.43
2018-01-17T17:49:28.936Z,2.23
2018-01-17T17:51:55.683Z,2.33
2018-01-17T17:54:22.408Z,1.40
2018-01-17T17:56:49.125Z,3.30
2018-01-17T17:59:15.869Z,1.47
2018-01-17T18:01:42.599Z,2.17
2018-01-17T18:04:09.333Z,1.30
2018-01-17T18:06:36.130Z,7.57
2018-01-17T18:09:02.881Z,4.60
2018-01-17T18:11:29.619Z,1.23
2018-01-17T18:13:56.407Z,1.90
2018-01-17T18:16:23.137Z,2.30
2018-01-17T18:18:49.905Z,1.30
2018-01-17T18:21:16.630Z,2.03
2018-01-17T18:23:43.340Z,1.73
2018-01-17T18:26:10.076Z,8.30
2018-01-17T18:28:36.885Z,4.80
2018-01-17T18:31:07.467Z,2.23
2018-01-17T18:33:34.223Z,3.27
2018-01-17T18:36:00.993Z,4.00
2018-01-17T18:38:27.757Z,3.93
2018-01-17T18:40:54.475Z,3.23
2018-01-17T18:43:21.213Z,3.27
2018-01-17T18:45:47.990Z,4.53
2018-01-17T18:48:14.709Z,2.20
2018-01-17T18:50:41.452Z,2.90
2018-01-17T18:53:08.180Z,2.63
2018-01-17T18:55:34.885Z,4.90
2018-01-17T18:58:01.625Z,3.57
2018-01-17T19:00:28.344Z,6.40
2018-01-17T19:02:55.098Z,6.57
2018-01-17T19:05:21.905Z,6.97
2018-01-17T19:07:48.675Z,9.50
2018-01-17T19:10:15.406Z,5.87
2018-01-17T19:12:42.153Z,6.23
2018-01-17T19:15:08.875Z,4.03
2018-01-17T19:17:35.622Z,4.60
2018-01-17T19:20:02.349Z,2.80
2018-01-17T19:22:29.066Z,4.27
2018-01-17T19:24:55.823Z,4.23
2018-01-17T19:27:22.559Z,8.70
2018-01-17T19:29:51.921Z,6.60
2018-01-17T19:32:18.721Z,2.20
2018-01-17T19:34:46.120Z,5.10
2018-01-17T19:37:12.836Z,2.80
2018-01-17T19:39:39.557Z,2.73
2018-01-17T19:42:06.271Z,5.30
2018-01-17T19:44:37.597Z,1.50
2018-01-17T19:47:08.460Z,2.83
2018-01-17T19:49:39.760Z,2.27
2018-01-17T19:52:10.684Z,6.70
2018-01-17T19:54:40.866Z,2.00
2018-01-17T19:57:11.602Z,2.57
2018-01-17T19:59:41.983Z,7.13
2018-01-17T20:02:12.724Z,3.00
2018-01-17T20:04:43.372Z,2.50
2018-01-17T20:07:13.808Z,3.03
2018-01-17T20:09:47.453Z,2.07
2018-01-17T20:12:20.999Z,1.50
2018-01-17T20:14:54.122Z,2.00
2018-01-17T20:17:29.647Z,1.30
2018-01-17T20:20:02.020Z,1.90
2018-01-17T20:22:41.606Z,1.80
2018-01-17T20:25:14.374Z,2.33
2018-01-17T20:27:47.204Z,1.20
2018-01-17T20:30:22.165Z,1.17
2018-01-17T20:32:49.384Z,1.33
2018-01-17T20:35:16.102Z,2.03
2018-01-17T20:37:42.819Z,1.53
2018-01-17T20:40:18.867Z,3.10
2018-01-17T20:42:49.959Z,2.40
2018-01-17T20:45:21.369Z,1.60
2018-01-17T20:47:48.353Z,3.93
2018-01-17T20:50:15.080Z,2.70
2018-01-17T20:52:41.803Z,1.93
2018-01-17T20:55:08.530Z,1.77
2018-01-17T20:57:35.263Z,2.40
2018-01-17T21:00:02.028Z,2.73
2018-01-17T21:02:28.750Z,2.67
2018-01-17T21:04:55.485Z,2.80
2018-01-17T21:07:22.316Z,1.90
2018-01-17T21:09:49.040Z,2.63
2018-01-17T21:12:15.791Z,1.63
2018-01-17T21:14:42.547Z,1.80
2018-01-17T21:17:09.762Z,3.00
2018-01-17T21:19:36.514Z,2.30
2018-01-17T21:22:03.259Z,4.63
2018-01-17T21:24:29.994Z,2.67
2018-01-17T21:26:56.753Z,6.20
2018-01-17T21:29:23.474Z,4.87
2018-01-17T21:31:50.215Z,4.03
2018-01-17T21:34:16.960Z,3.07
2018-01-17T21:36:43.710Z,1.47
2018-01-17T21:39:10.433Z,2.93
2018-01-17T21:41:37.173Z,3.23
2018-01-17T21:44:09.689Z,5.70
2018-01-17T21:46:36.394Z,1.87
2018-01-17T21:49:03.114Z,1.93
2018-01-17T21:51:29.857Z,1.63
2018-01-17T21:53:56.565Z,1.53
2018-01-17T21:56:23.268Z,1.33
2018-01-17T21:58:49.993Z,1.93
2018-01-17T22:01:16.769Z,1.30
2018-01-17T22:03:43.650Z,2.43
2018-01-17T22:06:10.397Z,1.63
2018-01-17T22:08:38.673Z,1.40
2018-01-17T22:11:05.448Z,1.90
2018-01-17T22:13:32.164Z,1.40
2018-01-17T22:15:58.888Z,1.60
2018-01-17T22:18:25.599Z,0.90
2018-01-17T22:20:52.335Z,1.13
2018-01-17T22:23:19.219Z,1.87
2018-01-17T22:25:45.946Z,1.10
2018-01-17T22:28:12.656Z,4.93
2018-01-17T22:30:39.395Z,1.93
2018-01-17T22:33:06.101Z,0.87
2018-01-17T22:35:32.845Z,1.63
2018-01-17T22:37:59.546Z,1.47
2018-01-17T22:40:26.295Z,1.20
2018-01-17T22:42:53.014Z,1.40
2018-01-17T22:45:19.790Z,1.27
2018-01-17T22:47:46.495Z,0.80
2018-01-17T22:50:13.234Z,1.00
2018-01-17T22:52:39.968Z,1.13
2018-01-17T22:55:06.694Z,0.97
2018-01-17T22:57:33.422Z,2.33
2018-01-17T23:00:00.290Z,1.10
2018-01-17T23:02:27.002Z,0.90
2018-01-17T23:04:53.774Z,1.33
2018-01-17T23:07:20.493Z,2.67
2018-01-17T23:09:47.255Z,2.10
2018-01-17T23:12:13.985Z,1.47
2018-01-17T23:14:40.709Z,2.63
2018-01-17T23:17:07.425Z,5.17
2018-01-17T23:19:35.113Z,1.53
2018-01-17T23:22:01.817Z,1.30
2018-01-17T23:24:28.516Z,3.90
2018-01-17T23:26:55.233Z,1.27
2018-01-17T23:29:21.998Z,1.37
2018-01-17T23:31:48.697Z,2.03
2018-01-17T23:34:15.420Z,1.37
2018-01-17T23:36:42.122Z,1.10
2018-01-17T23:39:08.849Z,1.50
2018-01-17T23:41:35.565Z,2.03
2018-01-17T23:44:02.270Z,1.23
2018-01-17T23:46:28.970Z,2.87
2018-01-17T23:48:55.719Z,0.60
2018-01-17T23:51:22.420Z,1.10
2018-01-17T23:53:49.181Z,0.97
2018-01-17T23:56:15.874Z,2.43
2018-01-17T23:58:42.595Z,2.30
